createdAt,value
2022-10-31T00:00:01.391Z,12.60
2022-10-31T00:02:28.660Z,12.80
2022-10-31T00:04:55.266Z,12.80
2022-10-31T00:07:21.871Z,12.90
2022-10-31T00:09:48.406Z,12.80
2022-10-31T00:12:14.995Z,12.80
2022-10-31T00:14:41.536Z,12.80
2022-10-31T00:17:08.075Z,13.10
2022-10-31T00:19:35.251Z,12.80
2022-10-31T00:22:01.787Z,12.60
2022-10-31T00:24:28.304Z,12.60
2022-10-31T00:26:55.063Z,12.60
2022-10-31T00:29:21.664Z,12.60
2022-10-31T00:31:48.219Z,12.50
2022-10-31T00:34:14.777Z,12.70
2022-10-31T00:36:42.038Z,12.50
2022-10-31T00:39:08.665Z,12.40
2022-10-31T00:41:35.258Z,12.40
2022-10-31T00:44:01.920Z,12.40
2022-10-31T00:46:28.633Z,12.60
2022-10-31T00:48:55.199Z,12.50
2022-10-31T00:51:21.819Z,12.50
2022-10-31T00:53:49.052Z,10.50
2022-10-31T00:56:15.611Z,12.40
2022-10-31T00:58:42.169Z,12.40
2022-10-31T01:01:08.849Z,12.40
2022-10-31T01:03:36.290Z,12.30
2022-10-31T01:06:06.069Z,12.30
2022-10-31T01:08:32.705Z,12.20
2022-10-31T01:11:05.830Z,12.20
2022-10-31T01:13:32.440Z,12.20
2022-10-31T01:16:00.584Z,12.20
2022-10-31T01:18:27.846Z,12.20
2022-10-31T01:21:02.830Z,12.20
2022-10-31T01:23:29.436Z,12.20
2022-10-31T01:26:05.167Z,12.10
2022-10-31T01:28:31.866Z,12.10
2022-10-31T01:31:01.620Z,12.10
2022-10-31T01:33:28.259Z,12.10
2022-10-31T01:35:55.034Z,12.00
2022-10-31T01:38:21.575Z,12.00
2022-10-31T01:40:48.191Z,12.00
2022-10-31T01:43:15.490Z,12.00
2022-10-31T01:45:44.910Z,12.00
2022-10-31T01:48:16.046Z,12.00
2022-10-31T01:50:44.725Z,12.00
2022-10-31T01:53:12.005Z,12.00
2022-10-31T01:55:41.726Z,12.20
2022-10-31T01:58:12.680Z,12.00
2022-10-31T02:00:42.594Z,12.00
2022-10-31T02:03:09.213Z,12.00
2022-10-31T02:05:36.800Z,12.00
2022-10-31T02:08:08.050Z,12.00
2022-10-31T02:10:36.462Z,12.00
2022-10-31T02:13:05.860Z,11.90
2022-10-31T02:15:33.506Z,12.00
2022-10-31T02:18:01.413Z,12.00
2022-10-31T02:20:33.506Z,12.10
2022-10-31T02:23:29.469Z,12.10
2022-10-31T02:26:14.348Z,12.10
2022-10-31T02:29:11.013Z,12.10
2022-10-31T02:31:44.044Z,12.00
2022-10-31T02:34:17.822Z,12.00
2022-10-31T02:36:52.930Z,12.00
2022-10-31T02:39:24.230Z,11.90
2022-10-31T02:42:00.667Z,12.00
2022-10-31T02:44:36.069Z,12.00
2022-10-31T02:47:07.691Z,11.90
2022-10-31T02:49:39.798Z,12.00
2022-10-31T02:52:17.298Z,11.80
2022-10-31T02:54:45.832Z,11.80
2022-10-31T02:57:13.202Z,11.80
2022-10-31T02:59:45.272Z,11.80
2022-10-31T03:02:40.987Z,11.80
2022-10-31T03:05:18.301Z,11.80
2022-10-31T03:07:55.372Z,11.80
2022-10-31T03:10:32.802Z,11.80
2022-10-31T03:13:06.410Z,12.00
2022-10-31T03:15:37.021Z,11.80
2022-10-31T03:18:08.840Z,11.80
2022-10-31T03:20:39.777Z,11.70
2022-10-31T03:23:09.761Z,11.70
2022-10-31T03:25:38.333Z,11.70
2022-10-31T03:28:06.809Z,11.70
2022-10-31T03:30:36.363Z,11.70
2022-10-31T03:33:09.628Z,11.70
2022-10-31T03:35:39.002Z,11.60
2022-10-31T03:38:07.845Z,11.70
2022-10-31T03:40:37.558Z,11.70
2022-10-31T03:43:09.117Z,11.60
2022-10-31T03:45:42.590Z,11.60
2022-10-31T03:48:10.300Z,11.50
2022-10-31T03:50:44.247Z,11.70
2022-10-31T03:53:17.460Z,11.90
2022-10-31T03:55:51.625Z,12.00
2022-10-31T03:58:23.407Z,11.90
2022-10-31T04:00:53.607Z,11.80
2022-10-31T04:03:25.930Z,12.00
2022-10-31T04:05:57.413Z,11.90
2022-10-31T04:08:28.510Z,11.70
2022-10-31T04:10:56.820Z,11.80
2022-10-31T04:13:27.470Z,12.10
2022-10-31T04:15:56.030Z,12.00
2022-10-31T04:18:24.721Z,11.90
2022-10-31T04:21:01.120Z,11.80
2022-10-31T04:23:28.722Z,11.80
2022-10-31T04:25:55.433Z,11.70
2022-10-31T04:28:22.263Z,11.40
2022-10-31T04:30:48.947Z,11.70
2022-10-31T04:33:15.717Z,11.70
2022-10-31T04:35:42.955Z,11.60
2022-10-31T04:38:09.525Z,12.90
2022-10-31T04:40:36.064Z,11.60
2022-10-31T04:43:02.971Z,11.60
2022-10-31T04:45:29.794Z,11.60
2022-10-31T04:47:56.401Z,11.70
2022-10-31T04:50:22.972Z,11.70
2022-10-31T04:52:50.199Z,11.60
2022-10-31T04:55:16.891Z,11.60
2022-10-31T04:57:44.345Z,11.90
2022-10-31T05:00:12.978Z,12.10
2022-10-31T05:02:44.588Z,12.30
2022-10-31T05:05:11.572Z,12.20
2022-10-31T05:07:40.544Z,12.20
2022-10-31T05:10:10.039Z,12.30
2022-10-31T05:12:36.750Z,12.70
2022-10-31T05:15:03.857Z,12.80
2022-10-31T05:17:31.624Z,12.90
2022-10-31T05:19:58.298Z,13.00
2022-10-31T05:22:24.867Z,13.00
2022-10-31T05:24:51.450Z,13.10
2022-10-31T05:27:18.667Z,13.10
2022-10-31T05:29:45.220Z,13.10
2022-10-31T05:32:11.794Z,13.10
2022-10-31T05:34:38.401Z,13.00
2022-10-31T05:37:04.962Z,13.10
2022-10-31T05:39:31.558Z,13.10
2022-10-31T05:41:58.127Z,13.10
2022-10-31T05:44:25.524Z,13.20
2022-10-31T05:46:52.057Z,13.10
2022-10-31T05:49:18.746Z,13.20
2022-10-31T05:51:45.358Z,13.20
2022-10-31T05:54:15.653Z,13.50
2022-10-31T05:56:42.630Z,13.20
2022-10-31T05:59:09.234Z,13.20
2022-10-31T06:01:36.776Z,13.20
2022-10-31T06:04:03.375Z,14.70
2022-10-31T06:06:29.987Z,13.10
2022-10-31T06:08:56.662Z,12.90
2022-10-31T06:11:23.604Z,13.20
2022-10-31T06:13:50.151Z,13.10
2022-10-31T06:16:16.706Z,13.20
2022-10-31T06:18:43.994Z,13.10
2022-10-31T06:21:12.455Z,13.10
2022-10-31T06:23:41.532Z,13.10
2022-10-31T06:26:08.085Z,13.60
2022-10-31T06:28:34.706Z,13.30
2022-10-31T06:31:01.341Z,13.30
2022-10-31T06:33:27.893Z,13.40
2022-10-31T06:35:55.237Z,13.40
2022-10-31T06:38:21.902Z,13.20
2022-10-31T06:40:48.463Z,13.30
2022-10-31T06:43:15.071Z,13.30
2022-10-31T06:45:41.638Z,13.40
2022-10-31T06:48:17.106Z,13.50
2022-10-31T06:50:46.915Z,13.50
2022-10-31T06:53:14.724Z,13.70
2022-10-31T06:55:43.419Z,13.70
2022-10-31T06:58:11.285Z,13.80
2022-10-31T07:00:38.328Z,13.80
2022-10-31T07:03:06.777Z,13.80
2022-10-31T07:05:33.717Z,13.80
2022-10-31T07:08:02.503Z,13.70
2022-10-31T07:10:35.624Z,13.90
2022-10-31T07:13:07.510Z,14.00
2022-10-31T07:15:35.306Z,14.00
2022-10-31T07:18:02.905Z,14.10
2022-10-31T07:20:30.109Z,14.40
2022-10-31T07:22:56.810Z,14.30
2022-10-31T07:25:23.756Z,14.30
2022-10-31T07:27:51.369Z,14.50
2022-10-31T07:30:19.033Z,14.50
2022-10-31T07:32:47.025Z,14.60
2022-10-31T07:35:15.802Z,14.60
2022-10-31T07:37:42.372Z,14.80
2022-10-31T07:40:10.663Z,15.00
2022-10-31T07:42:37.566Z,15.00
2022-10-31T07:45:06.850Z,15.00
2022-10-31T07:47:39.177Z,15.10
2022-10-31T07:50:06.918Z,15.10
2022-10-31T07:52:33.539Z,15.20
2022-10-31T07:55:00.113Z,15.20
2022-10-31T07:57:30.621Z,15.30
2022-10-31T08:00:00.189Z,15.40
2022-10-31T08:02:27.521Z,15.50
2022-10-31T08:04:57.234Z,15.30
2022-10-31T08:07:27.029Z,15.80
2022-10-31T08:09:53.612Z,15.00
2022-10-31T08:12:20.260Z,15.40
2022-10-31T08:14:46.821Z,15.40
2022-10-31T08:17:13.386Z,15.20
2022-10-31T08:19:40.581Z,15.20
2022-10-31T08:22:07.173Z,15.10
2022-10-31T08:24:33.742Z,15.10
2022-10-31T08:27:00.651Z,15.10
2022-10-31T08:29:27.213Z,15.00
2022-10-31T08:31:53.770Z,15.00
2022-10-31T08:34:20.560Z,15.10
2022-10-31T08:36:47.743Z,15.00
2022-10-31T08:39:14.287Z,15.00
2022-10-31T08:41:40.867Z,14.90
2022-10-31T08:44:07.498Z,14.80
2022-10-31T08:46:34.637Z,14.80
2022-10-31T08:49:01.269Z,14.60
2022-10-31T08:51:27.832Z,14.90
2022-10-31T08:53:54.989Z,15.00
2022-10-31T08:56:22.613Z,15.20
2022-10-31T08:58:49.233Z,15.30
2022-10-31T09:01:15.980Z,15.20
2022-10-31T09:03:42.653Z,15.30
2022-10-31T09:06:09.305Z,15.30
2022-10-31T09:08:36.667Z,15.30
2022-10-31T09:11:04.685Z,15.30
2022-10-31T09:13:31.329Z,15.40
2022-10-31T09:15:58.312Z,15.50
2022-10-31T09:18:25.348Z,15.60
2022-10-31T09:20:52.025Z,15.70
2022-10-31T09:23:20.769Z,15.80
2022-10-31T09:25:50.718Z,15.80
2022-10-31T09:28:20.353Z,15.70
2022-10-31T09:30:48.192Z,15.50
2022-10-31T09:33:15.081Z,15.60
2022-10-31T09:35:42.300Z,15.40
2022-10-31T09:38:11.349Z,15.80
2022-10-31T09:40:39.940Z,16.10
2022-10-31T09:43:15.776Z,16.30
2022-10-31T09:45:50.895Z,16.80
2022-10-31T09:48:38.321Z,16.60
2022-10-31T09:51:08.933Z,16.70
2022-10-31T09:53:40.645Z,16.50
2022-10-31T09:56:10.530Z,16.70
2022-10-31T09:58:42.878Z,16.60
2022-10-31T10:01:23.272Z,16.50
2022-10-31T10:03:54.561Z,16.40
2022-10-31T10:06:26.648Z,16.20
2022-10-31T10:08:53.472Z,16.10
2022-10-31T10:11:40.036Z,15.90
2022-10-31T10:14:31.509Z,16.00
2022-10-31T10:17:12.484Z,16.20
2022-10-31T10:20:02.378Z,16.40
2022-10-31T10:22:37.355Z,16.60
2022-10-31T10:25:15.270Z,16.90
2022-10-31T10:27:54.793Z,16.80
2022-10-31T10:30:23.494Z,16.70
2022-10-31T10:32:52.944Z,16.60
2022-10-31T10:35:25.132Z,16.50
2022-10-31T10:37:56.782Z,16.50
2022-10-31T10:40:25.803Z,16.30
2022-10-31T10:43:18.892Z,16.40
2022-10-31T10:46:10.831Z,16.50
2022-10-31T10:48:44.073Z,16.80
2022-10-31T10:51:32.017Z,17.00
2022-10-31T10:54:21.776Z,17.30
2022-10-31T10:57:01.215Z,17.50
2022-10-31T10:59:28.012Z,17.60
2022-10-31T11:01:54.546Z,17.70
2022-10-31T11:04:33.678Z,17.70
2022-10-31T11:07:02.313Z,17.70
2022-10-31T11:09:29.040Z,17.70
2022-10-31T11:11:57.021Z,17.70
2022-10-31T11:14:24.531Z,17.70
2022-10-31T11:16:54.894Z,17.90
2022-10-31T11:19:23.676Z,18.00
2022-10-31T11:21:53.632Z,18.00
2022-10-31T11:24:22.445Z,17.80
2022-10-31T11:26:50.555Z,15.80
2022-10-31T11:29:24.986Z,17.50
2022-10-31T11:31:53.766Z,17.60
2022-10-31T11:34:28.921Z,17.60
2022-10-31T11:37:02.914Z,17.60
2022-10-31T11:39:29.813Z,17.70
2022-10-31T11:42:02.817Z,17.80
2022-10-31T11:44:33.256Z,18.10
2022-10-31T11:47:02.216Z,18.30
2022-10-31T11:49:32.435Z,18.50
2022-10-31T11:52:04.935Z,18.70
2022-10-31T11:54:36.236Z,18.60
2022-10-31T11:57:03.241Z,18.80
2022-10-31T11:59:32.300Z,18.80
2022-10-31T12:02:00.923Z,18.90
2022-10-31T12:04:37.923Z,18.70
2022-10-31T12:07:05.323Z,18.90
2022-10-31T12:09:35.454Z,19.20
2022-10-31T12:12:24.313Z,19.30
2022-10-31T12:15:02.696Z,19.40
2022-10-31T12:17:37.004Z,19.40
2022-10-31T12:20:13.502Z,19.30
2022-10-31T12:22:48.602Z,19.60
2022-10-31T12:25:28.738Z,19.80
2022-10-31T12:28:23.154Z,20.10
2022-10-31T12:31:00.666Z,20.30
2022-10-31T12:33:40.800Z,21.20
2022-10-31T12:36:30.133Z,24.90
2022-10-31T12:39:11.987Z,27.50
2022-10-31T12:41:47.484Z,29.30
2022-10-31T12:44:33.021Z,30.70
2022-10-31T12:47:23.466Z,30.10
2022-10-31T12:49:59.548Z,29.80
2022-10-31T12:52:40.457Z,29.20
2022-10-31T12:55:26.704Z,29.50
2022-10-31T12:57:57.762Z,29.00
2022-10-31T13:00:29.593Z,28.70
2022-10-31T13:02:59.997Z,29.10
2022-10-31T13:05:31.112Z,28.90
2022-10-31T13:08:01.200Z,28.40
2022-10-31T13:10:35.054Z,28.30
2022-10-31T13:13:09.043Z,28.40
2022-10-31T13:15:47.778Z,28.40
2022-10-31T13:18:27.676Z,28.70
2022-10-31T13:20:56.088Z,29.00
2022-10-31T13:23:49.821Z,28.70
2022-10-31T13:26:22.800Z,28.50
2022-10-31T13:28:56.049Z,27.60
2022-10-31T13:31:22.777Z,26.90
2022-10-31T13:33:53.878Z,26.00
2022-10-31T13:36:30.169Z,25.30
2022-10-31T13:39:02.509Z,25.20
2022-10-31T13:41:41.376Z,25.10
2022-10-31T13:44:14.752Z,24.50
2022-10-31T13:49:38.642Z,23.00
2022-10-31T13:52:24.566Z,21.90
2022-10-31T13:54:56.158Z,21.40
2022-10-31T13:57:33.909Z,21.10
2022-10-31T14:00:04.260Z,20.80
2022-10-31T14:02:33.904Z,21.40
2022-10-31T14:05:02.654Z,20.20
2022-10-31T14:07:30.721Z,20.10
2022-10-31T14:09:59.963Z,19.90
2022-10-31T14:12:31.723Z,19.80
2022-10-31T14:15:03.703Z,19.50
2022-10-31T14:17:46.420Z,19.60
2022-10-31T14:20:37.639Z,19.50
2022-10-31T14:23:32.977Z,19.40
2022-10-31T14:26:30.905Z,19.30
2022-10-31T14:28:59.361Z,19.20
2022-10-31T14:31:36.424Z,19.00
2022-10-31T14:34:18.767Z,19.00
2022-10-31T14:36:55.070Z,18.90
2022-10-31T14:39:29.917Z,18.80
2022-10-31T14:42:10.317Z,18.90
2022-10-31T14:44:52.555Z,18.70
2022-10-31T14:47:29.160Z,18.60
2022-10-31T14:50:13.418Z,18.50
2022-10-31T14:52:41.681Z,18.40
2022-10-31T14:55:13.828Z,18.30
2022-10-31T14:57:51.487Z,18.30
2022-10-31T15:00:20.737Z,18.20
2022-10-31T15:03:12.661Z,18.20
2022-10-31T15:05:47.062Z,18.00
2022-10-31T15:08:27.278Z,17.90
2022-10-31T15:10:54.023Z,17.80
2022-10-31T15:13:22.739Z,17.30
2022-10-31T15:15:52.537Z,17.50
2022-10-31T15:18:22.040Z,17.10
2022-10-31T15:20:50.793Z,17.20
2022-10-31T15:23:23.299Z,17.00
2022-10-31T15:25:50.068Z,15.80
2022-10-31T15:28:22.980Z,16.90
2022-10-31T15:30:54.435Z,16.80
2022-10-31T15:33:23.490Z,16.70
2022-10-31T15:35:57.846Z,16.90
2022-10-31T15:38:25.295Z,16.60
2022-10-31T15:40:55.209Z,16.60
2022-10-31T15:43:22.462Z,16.40
2022-10-31T15:45:49.431Z,16.40
2022-10-31T15:48:19.455Z,16.40
2022-10-31T15:50:49.950Z,16.20
2022-10-31T15:53:18.699Z,16.20
2022-10-31T15:55:50.443Z,16.20
2022-10-31T15:58:18.263Z,16.20
2022-10-31T16:00:45.190Z,16.10
2022-10-31T16:03:24.252Z,16.10
2022-10-31T16:05:52.897Z,16.10
2022-10-31T16:08:32.901Z,16.00
2022-10-31T16:11:03.256Z,16.00
2022-10-31T16:13:33.138Z,16.00
2022-10-31T16:16:32.975Z,15.90
2022-10-31T16:18:50.322Z,15.90
2022-10-31T16:21:23.599Z,15.90
2022-10-31T16:23:58.182Z,15.90
2022-10-31T16:26:26.002Z,15.90
2022-10-31T16:28:53.449Z,16.00
2022-10-31T16:31:28.931Z,15.80
2022-10-31T16:34:13.558Z,15.80
2022-10-31T16:36:40.261Z,15.90
2022-10-31T16:39:07.412Z,15.80
2022-10-31T16:41:38.540Z,15.60
2022-10-31T16:44:14.938Z,15.70
2022-10-31T16:46:41.548Z,15.60
2022-10-31T16:49:09.702Z,15.60
2022-10-31T16:51:36.600Z,15.60
2022-10-31T16:54:03.245Z,15.60
2022-10-31T16:56:33.372Z,15.60
2022-10-31T16:59:01.914Z,15.50
2022-10-31T17:01:29.164Z,15.50
2022-10-31T17:03:55.924Z,15.40
2022-10-31T17:06:23.195Z,15.40
2022-10-31T17:08:50.937Z,15.30
2022-10-31T17:11:32.835Z,15.40
2022-10-31T17:14:00.451Z,15.10
2022-10-31T17:16:27.371Z,15.30
2022-10-31T17:18:54.076Z,15.30
2022-10-31T17:21:22.687Z,15.20
2022-10-31T17:23:50.192Z,15.20
2022-10-31T17:26:17.155Z,15.40
2022-10-31T17:28:43.791Z,15.10
2022-10-31T17:31:20.728Z,15.10
2022-10-31T17:33:47.324Z,15.00
2022-10-31T17:36:13.979Z,15.00
2022-10-31T17:38:40.625Z,15.00
2022-10-31T17:41:11.148Z,15.10
2022-10-31T17:43:38.485Z,14.90
2022-10-31T17:46:06.105Z,14.90
2022-10-31T17:48:33.951Z,14.90
2022-10-31T17:51:01.597Z,14.90
2022-10-31T17:53:30.017Z,14.90
2022-10-31T17:56:00.765Z,14.90
2022-10-31T17:58:31.596Z,14.50
2022-10-31T18:00:58.960Z,14.90
2022-10-31T18:03:26.377Z,14.90
2022-10-31T18:05:54.759Z,14.90
2022-10-31T18:08:25.572Z,14.70
2022-10-31T18:10:52.394Z,14.70
2022-10-31T18:13:20.130Z,14.60
2022-10-31T18:15:47.838Z,14.60
2022-10-31T18:18:15.073Z,14.60
2022-10-31T18:20:42.864Z,14.50
2022-10-31T18:23:09.764Z,14.60
2022-10-31T18:25:38.174Z,14.60
2022-10-31T18:28:05.165Z,14.60
2022-10-31T18:30:31.982Z,14.50
2022-10-31T18:32:59.564Z,14.50
2022-10-31T18:35:38.693Z,14.60
2022-10-31T18:38:27.329Z,14.50
2022-10-31T18:41:03.720Z,14.50
2022-10-31T18:43:30.882Z,14.40
2022-10-31T18:46:02.041Z,14.40
2022-10-31T18:48:34.814Z,14.30
2022-10-31T18:51:18.664Z,14.30
2022-10-31T18:53:50.714Z,14.40
2022-10-31T18:56:41.370Z,14.30
2022-10-31T18:59:13.587Z,14.40
2022-10-31T19:01:43.946Z,14.20
2022-10-31T19:04:19.721Z,14.30
2022-10-31T19:07:20.932Z,14.30
2022-10-31T19:10:00.096Z,13.40
2022-10-31T19:12:50.579Z,14.30
2022-10-31T19:15:23.401Z,14.30
2022-10-31T19:17:56.334Z,14.20
2022-10-31T19:20:31.750Z,14.20
2022-10-31T19:23:05.172Z,14.30
2022-10-31T19:25:54.368Z,14.30
2022-10-31T19:28:21.332Z,14.20
2022-10-31T19:30:56.887Z,14.30
2022-10-31T19:33:33.366Z,14.20
2022-10-31T19:36:07.762Z,14.20
2022-10-31T19:38:35.409Z,14.00
2022-10-31T19:41:24.125Z,14.00
2022-10-31T19:44:19.151Z,14.00
2022-10-31T19:46:54.227Z,14.00
2022-10-31T19:49:31.673Z,14.00
2022-10-31T19:51:58.943Z,14.10
2022-10-31T19:54:25.517Z,14.10
2022-10-31T19:56:52.128Z,14.00
2022-10-31T19:59:18.750Z,14.00
2022-10-31T20:02:00.967Z,14.00
2022-10-31T20:04:45.415Z,14.00
2022-10-31T20:07:29.462Z,14.10
2022-10-31T20:10:03.317Z,14.00
2022-10-31T20:12:49.408Z,14.00
2022-10-31T20:15:16.357Z,14.00
2022-10-31T20:17:43.282Z,14.00
2022-10-31T20:20:10.877Z,14.00
2022-10-31T20:22:38.368Z,14.10
2022-10-31T20:25:07.291Z,14.00
2022-10-31T20:27:34.065Z,13.70
2022-10-31T20:30:00.802Z,14.00
2022-10-31T20:32:27.425Z,14.00
2022-10-31T20:34:54.161Z,14.00
2022-10-31T20:37:20.763Z,14.00
2022-10-31T20:39:50.362Z,14.10
2022-10-31T20:42:21.191Z,13.90
2022-10-31T20:44:47.814Z,13.90
2022-10-31T20:47:14.458Z,13.90
2022-10-31T20:49:41.098Z,13.90
2022-10-31T20:52:07.686Z,14.00
2022-10-31T20:54:34.380Z,13.80
2022-10-31T20:57:02.154Z,13.80
2022-10-31T20:59:28.799Z,13.80
2022-10-31T21:01:55.514Z,13.70
2022-10-31T21:04:22.362Z,13.70
2022-10-31T21:06:49.692Z,14.00
2022-10-31T21:09:17.376Z,13.70
2022-10-31T21:11:44.165Z,13.70
2022-10-31T21:14:12.183Z,13.70
2022-10-31T21:16:39.237Z,13.70
2022-10-31T21:19:06.430Z,13.80
2022-10-31T21:21:34.790Z,13.60
2022-10-31T21:24:02.957Z,13.60
2022-10-31T21:26:33.733Z,13.70
2022-10-31T21:29:01.526Z,13.40
2022-10-31T21:31:28.927Z,13.20
2022-10-31T21:33:55.789Z,13.50
2022-10-31T21:36:22.477Z,13.50
2022-10-31T21:38:50.503Z,13.60
2022-10-31T21:41:18.170Z,13.80
2022-10-31T21:43:46.773Z,13.70
2022-10-31T21:46:16.087Z,13.60
2022-10-31T21:48:44.421Z,13.60
2022-10-31T21:51:12.576Z,13.60
2022-10-31T21:53:57.731Z,13.60
2022-10-31T21:56:24.852Z,13.60
2022-10-31T21:58:52.530Z,13.40
2022-10-31T22:01:19.476Z,13.60
2022-10-31T22:03:46.983Z,13.50
2022-10-31T22:06:14.233Z,13.50
2022-10-31T22:08:41.106Z,13.60
2022-10-31T22:11:09.548Z,13.50
2022-10-31T22:13:36.878Z,13.50
2022-10-31T22:16:05.773Z,13.50
2022-10-31T22:18:32.666Z,13.50
2022-10-31T22:21:04.331Z,13.60
2022-10-31T22:23:31.069Z,13.50
2022-10-31T22:26:01.509Z,13.30
2022-10-31T22:28:29.505Z,13.50
2022-10-31T22:30:56.172Z,13.40
2022-10-31T22:33:22.797Z,13.40
2022-10-31T22:35:49.555Z,13.40
2022-10-31T22:38:16.860Z,13.40
2022-10-31T22:40:43.461Z,13.60
2022-10-31T22:43:10.134Z,13.40
2022-10-31T22:45:36.823Z,13.50
2022-10-31T22:48:04.600Z,13.60
2022-10-31T22:50:32.036Z,13.60
2022-10-31T22:52:58.682Z,13.60
2022-10-31T22:55:26.191Z,13.70
2022-10-31T22:57:52.744Z,13.70
2022-10-31T23:00:19.920Z,13.50
2022-10-31T23:02:46.485Z,13.90
2022-10-31T23:05:13.287Z,13.60
2022-10-31T23:07:40.347Z,13.70
2022-10-31T23:10:07.693Z,13.70
2022-10-31T23:12:53.292Z,13.70
2022-10-31T23:15:19.872Z,13.70
2022-10-31T23:17:46.442Z,13.70
2022-10-31T23:20:13.009Z,13.70
2022-10-31T23:22:40.116Z,13.70
2022-10-31T23:25:07.569Z,13.60
2022-10-31T23:27:34.516Z,13.70
2022-10-31T23:30:01.392Z,13.70
2022-10-31T23:32:30.152Z,13.70
2022-10-31T23:34:58.296Z,13.70
2022-10-31T23:37:28.109Z,13.70
2022-10-31T23:39:55.613Z,13.70
2022-10-31T23:42:22.915Z,13.70
2022-10-31T23:44:50.511Z,13.70
2022-10-31T23:47:18.133Z,13.70
2022-10-31T23:49:44.758Z,13.70
2022-10-31T23:52:12.278Z,13.70
2022-10-31T23:54:39.407Z,13.90
2022-10-31T23:57:06.220Z,13.80
2022-10-31T23:59:32.894Z,13.80
